createdAt,value
2024-01-15T07:51:10.096Z,70.79
2024-01-15T07:53:39.342Z,72.34
2024-01-15T07:56:07.837Z,73.30
2024-01-15T07:58:36.529Z,73.50
2024-01-15T08:01:05.885Z,73.05
2024-01-15T08:03:34.763Z,73.25
2024-01-15T08:06:07.052Z,74.38
2024-01-15T08:08:35.621Z,75.06
2024-01-15T08:11:04.284Z,75.32
2024-01-15T08:13:32.794Z,75.94
2024-01-15T08:16:01.345Z,74.32
2024-01-15T08:18:30.154Z,73.41
2024-01-15T08:20:58.956Z,73.51
2024-01-15T08:23:32.721Z,74.55
2024-01-15T08:26:03.528Z,75.31
2024-01-15T08:28:32.529Z,74.13
2024-01-15T08:31:02.034Z,73.69
2024-01-15T08:33:31.032Z,73.51
2024-01-15T08:35:59.755Z,72.55
2024-01-15T08:38:28.459Z,72.46
2024-01-15T08:41:00.188Z,73.31
2024-01-15T08:43:29.190Z,73.43
2024-01-15T08:45:58.431Z,73.81
2024-01-15T08:48:28.808Z,73.58
2024-01-15T08:50:58.301Z,73.01
2024-01-15T08:53:29.391Z,72.91
2024-01-15T08:55:57.991Z,73.36
2024-01-15T08:58:26.824Z,73.15
2024-01-15T09:00:57.926Z,72.98
2024-01-15T09:03:26.953Z,72.82
2024-01-15T09:05:56.687Z,72.24
2024-01-15T09:08:26.144Z,71.95
2024-01-15T09:10:54.820Z,71.79
2024-01-15T09:13:26.440Z,72.18
2024-01-15T09:15:55.251Z,72.64
2024-01-15T09:18:26.744Z,71.60
2024-01-15T09:20:56.008Z,70.85
2024-01-15T09:23:29.827Z,70.70
2024-01-15T09:25:58.762Z,70.06
2024-01-15T09:28:29.765Z,70.31
2024-01-15T09:30:58.426Z,70.26
2024-01-15T09:33:28.484Z,70.22
2024-01-15T09:36:05.361Z,69.95
2024-01-15T09:38:34.050Z,70.33
2024-01-15T09:41:02.657Z,69.98
2024-01-15T09:43:31.614Z,69.23
2024-01-15T09:46:00.467Z,68.73
2024-01-15T09:48:29.400Z,67.90
2024-01-15T09:51:02.126Z,67.47
2024-01-15T09:53:31.374Z,67.30
2024-01-15T09:56:00.113Z,67.65
2024-01-15T09:58:31.880Z,67.05
2024-01-15T10:01:05.093Z,66.26
2024-01-15T10:03:35.850Z,66.58
2024-01-15T10:06:09.215Z,67.35
2024-01-15T10:08:41.454Z,66.70
2024-01-15T10:11:10.092Z,66.27
2024-01-15T10:13:41.938Z,66.33
2024-01-15T10:16:10.706Z,66.78
2024-01-15T10:18:41.020Z,66.58
2024-01-15T10:21:10.877Z,66.81
2024-01-15T10:23:39.771Z,67.24
2024-01-15T10:26:08.846Z,67.07
2024-01-15T10:31:39.831Z,66.79
2024-01-15T10:34:17.296Z,66.76
2024-01-15T10:36:58.862Z,66.88
2024-01-15T10:39:31.601Z,66.88
2024-01-15T10:42:00.474Z,66.93
2024-01-15T10:44:32.540Z,67.20
2024-01-15T10:47:02.180Z,67.55
2024-01-15T10:49:35.810Z,67.74
2024-01-15T10:52:05.529Z,67.66
2024-01-15T10:54:38.079Z,66.99
2024-01-15T10:57:11.168Z,67.87
2024-01-15T10:59:40.824Z,69.11
2024-01-15T11:02:10.110Z,68.56
2024-01-15T11:04:39.149Z,71.44
2024-01-15T11:07:09.061Z,74.85
2024-01-15T11:09:38.529Z,73.46
2024-01-15T11:12:15.312Z,72.25
2024-01-15T11:14:48.815Z,71.50
2024-01-15T11:17:19.950Z,72.92
2024-01-15T11:19:54.657Z,79.06
2024-01-15T11:22:35.480Z,77.61
2024-01-15T11:25:24.626Z,74.36
2024-01-15T11:27:56.719Z,74.33
2024-01-15T11:30:29.005Z,72.12
2024-01-15T11:32:58.089Z,71.09
2024-01-15T11:35:52.510Z,71.08
2024-01-15T11:38:33.279Z,70.99
2024-01-15T11:41:03.141Z,71.11
2024-01-15T11:43:34.379Z,71.50
2024-01-15T11:46:05.404Z,71.67
2024-01-15T11:48:46.108Z,72.11
2024-01-15T11:51:23.192Z,72.67
2024-01-15T11:53:59.244Z,73.17
2024-01-15T11:56:28.251Z,73.75
2024-01-15T11:58:57.881Z,74.17
2024-01-15T12:01:26.836Z,74.59
2024-01-15T12:04:00.243Z,75.00
2024-01-15T12:06:29.310Z,76.05
2024-01-15T12:09:10.520Z,76.75
2024-01-15T12:11:45.363Z,77.53
2024-01-15T12:14:17.676Z,78.38
2024-01-15T12:16:46.342Z,78.74
2024-01-15T12:19:16.809Z,79.32
2024-01-15T12:21:46.401Z,79.85
2024-01-15T12:24:15.046Z,80.16
2024-01-15T12:26:43.613Z,80.86
2024-01-15T12:29:13.043Z,81.67
2024-01-15T12:31:41.732Z,82.19
2024-01-15T12:34:10.543Z,82.33
2024-01-15T12:36:39.109Z,82.58
2024-01-15T12:39:12.988Z,82.65
2024-01-15T12:41:41.602Z,82.91
2024-01-15T12:44:10.230Z,83.23
2024-01-15T12:46:38.873Z,83.84
2024-01-15T12:49:09.790Z,84.41
2024-01-15T12:51:43.083Z,84.34
2024-01-15T12:54:11.732Z,84.71
2024-01-15T12:56:40.474Z,88.23
2024-01-15T12:59:09.625Z,86.88
2024-01-15T13:01:38.491Z,86.78
2024-01-15T13:04:10.262Z,86.33
2024-01-15T13:06:38.921Z,86.26
2024-01-15T13:09:07.538Z,87.08
2024-01-15T13:11:36.076Z,88.10
2024-01-15T13:14:04.781Z,88.22
2024-01-15T13:16:33.387Z,89.57
2024-01-15T13:19:02.064Z,91.49
2024-01-15T13:21:31.714Z,90.47
2024-01-15T13:24:00.321Z,89.30
2024-01-15T13:26:29.183Z,89.60
2024-01-15T13:28:57.727Z,90.19
2024-01-15T13:31:26.426Z,89.83
2024-01-15T13:33:57.403Z,89.86
2024-01-15T13:36:27.173Z,91.22
2024-01-15T13:38:56.115Z,92.19
2024-01-15T13:41:28.666Z,91.39
2024-01-15T13:43:57.407Z,90.88
2024-01-15T13:46:30.671Z,90.68
2024-01-15T13:48:59.709Z,91.75
2024-01-15T13:51:28.441Z,90.85
2024-01-15T13:53:57.003Z,91.27
2024-01-15T13:56:25.592Z,91.90
2024-01-15T13:58:54.187Z,92.16
2024-01-15T14:01:22.891Z,94.21
2024-01-15T14:03:51.676Z,99.12
2024-01-15T14:06:20.356Z,100.00
2024-01-15T14:08:48.996Z,100.00
2024-01-15T14:11:17.582Z,100.00
2024-01-15T14:13:46.890Z,100.00
2024-01-15T14:16:18.446Z,100.00
2024-01-15T14:18:54.520Z,100.00
2024-01-15T14:21:23.289Z,100.00
2024-01-15T14:23:52.003Z,100.00
2024-01-15T14:26:20.572Z,100.00
2024-01-15T14:28:51.898Z,100.00
2024-01-15T14:31:22.021Z,100.00
2024-01-15T14:33:50.711Z,100.00
2024-01-15T14:36:19.537Z,100.00
2024-01-15T14:38:50.064Z,100.00
2024-01-15T14:41:18.654Z,100.00
2024-01-15T14:43:49.570Z,100.00
2024-01-15T14:46:18.322Z,100.00
2024-01-15T14:48:47.063Z,100.00
2024-01-15T14:51:15.803Z,100.00
2024-01-15T14:53:45.388Z,100.00
2024-01-15T14:56:17.459Z,100.00
2024-01-15T14:58:47.194Z,100.00
2024-01-15T15:01:16.613Z,100.00
2024-01-15T15:03:45.817Z,100.00
2024-01-15T15:06:19.776Z,100.00
2024-01-15T15:08:51.207Z,100.00
2024-01-15T15:11:19.794Z,100.00
2024-01-15T15:13:50.791Z,100.00
2024-01-15T15:16:19.526Z,100.00
2024-01-15T15:18:48.731Z,100.00
2024-01-15T15:21:17.922Z,100.00
2024-01-15T15:23:46.705Z,100.00
2024-01-15T15:26:15.702Z,100.00
2024-01-15T15:28:44.250Z,100.00
2024-01-15T15:31:13.444Z,100.00
2024-01-15T15:33:43.235Z,100.00
2024-01-15T15:36:15.154Z,100.00
2024-01-15T15:38:43.786Z,100.00
2024-01-15T15:41:13.922Z,100.00
2024-01-15T15:43:42.765Z,100.00
2024-01-15T15:46:11.396Z,100.00
2024-01-15T15:48:40.242Z,100.00
2024-01-15T15:51:09.160Z,100.00
2024-01-15T15:53:37.913Z,100.00
2024-01-15T15:56:08.800Z,100.00
2024-01-15T15:58:41.607Z,100.00
2024-01-15T16:01:10.404Z,100.00
2024-01-15T16:03:39.665Z,100.00
2024-01-15T16:06:08.637Z,100.00
2024-01-15T16:08:40.047Z,100.00
2024-01-15T16:11:09.013Z,100.00
2024-01-15T16:13:39.848Z,100.00
2024-01-15T16:23:10.092Z,100.00
2024-01-15T16:23:23.282Z,100.00
2024-01-15T16:23:38.640Z,100.00
2024-01-15T16:24:51.220Z,100.00
2024-01-15T16:27:24.657Z,100.00
2024-01-15T16:29:53.736Z,100.00
2024-01-15T16:32:22.371Z,100.00
2024-01-15T16:34:51.210Z,100.00
2024-01-15T16:37:19.872Z,100.00
2024-01-15T16:39:51.951Z,100.00
2024-01-15T16:42:22.059Z,100.00
2024-01-15T16:44:51.123Z,100.00
2024-01-15T16:47:22.304Z,100.00
2024-01-15T16:49:52.304Z,100.00
2024-01-15T16:52:21.235Z,100.00
2024-01-15T16:54:49.959Z,100.00
2024-01-15T16:57:18.735Z,100.00
2024-01-15T16:59:47.948Z,100.00
2024-01-15T17:02:16.694Z,100.00
2024-01-15T17:04:48.438Z,100.00
2024-01-15T17:07:18.065Z,100.00
2024-01-15T17:09:46.608Z,100.00
2024-01-15T17:12:15.174Z,100.00
2024-01-15T17:14:43.860Z,100.00
2024-01-15T17:17:12.583Z,100.00
2024-01-15T17:19:45.479Z,100.00
2024-01-15T17:22:15.505Z,100.00
2024-01-15T17:24:44.040Z,100.00
2024-01-15T17:27:12.611Z,100.00
2024-01-15T17:29:41.922Z,100.00
2024-01-15T17:32:10.778Z,100.00
2024-01-15T17:34:40.131Z,100.00
2024-01-15T17:37:08.788Z,100.00
2024-01-15T17:39:37.801Z,100.00
2024-01-15T17:42:09.558Z,100.00
2024-01-15T17:44:38.190Z,100.00
2024-01-15T17:47:07.103Z,100.00
2024-01-15T17:49:35.727Z,100.00
2024-01-15T17:52:05.295Z,100.00
2024-01-15T17:54:34.283Z,100.00
2024-01-15T17:57:03.023Z,100.00
2024-01-15T17:59:31.963Z,100.00
2024-01-15T18:02:01.394Z,100.00
2024-01-15T18:04:30.032Z,100.00
2024-01-15T18:06:58.556Z,100.00
2024-01-15T18:09:27.027Z,100.00
2024-01-15T18:12:00.219Z,100.00
2024-01-15T18:14:29.858Z,100.00
2024-01-15T18:16:58.521Z,100.00
2024-01-15T18:19:27.140Z,100.00
2024-01-15T18:21:55.673Z,100.00
2024-01-15T18:24:26.481Z,100.00
2024-01-15T18:26:55.096Z,100.00
2024-01-15T18:29:25.265Z,100.00
2024-01-15T18:31:54.053Z,100.00
2024-01-15T18:34:22.584Z,100.00
2024-01-15T18:36:52.719Z,100.00
2024-01-15T18:39:21.161Z,100.00
2024-01-15T18:41:49.674Z,100.00
2024-01-15T18:44:18.421Z,99.45
2024-01-15T18:46:47.156Z,96.28
2024-01-15T18:49:17.876Z,97.03
2024-01-15T18:51:47.406Z,92.52
2024-01-15T18:54:16.644Z,89.31
2024-01-15T18:56:45.798Z,89.93
2024-01-15T18:59:14.583Z,90.25
2024-01-15T19:01:44.574Z,89.88
2024-01-15T19:04:13.559Z,88.64
2024-01-15T19:06:43.172Z,88.30
2024-01-15T19:09:12.716Z,88.31
2024-01-15T19:11:45.934Z,88.83
2024-01-15T19:14:17.694Z,88.53
2024-01-15T19:16:47.727Z,88.67
2024-01-15T19:19:16.713Z,88.77
2024-01-15T19:21:47.518Z,87.46
2024-01-15T19:24:17.398Z,87.84
2024-01-15T19:26:46.621Z,87.76
2024-01-15T19:29:17.769Z,87.11
2024-01-15T19:31:46.224Z,87.39
2024-01-15T19:34:14.933Z,87.05
2024-01-15T19:36:45.867Z,86.55
2024-01-15T19:39:14.359Z,86.13
2024-01-15T19:41:43.620Z,85.48
2024-01-15T19:44:12.082Z,85.17
2024-01-15T19:46:41.458Z,85.23
2024-01-15T19:49:15.610Z,85.30
2024-01-15T19:51:44.821Z,85.51
2024-01-15T19:54:13.632Z,85.08
2024-01-15T19:56:42.311Z,85.00
2024-01-15T19:59:11.048Z,85.09
2024-01-15T20:01:41.977Z,84.96
2024-01-15T20:04:14.495Z,84.86
2024-01-15T20:06:43.440Z,85.07
2024-01-15T20:09:18.037Z,85.44
2024-01-15T20:11:47.194Z,85.46
2024-01-15T20:14:20.443Z,85.74
2024-01-15T20:16:49.057Z,85.70
2024-01-15T20:19:28.674Z,85.49
2024-01-15T20:21:57.748Z,85.51
2024-01-15T20:24:27.597Z,85.49
2024-01-15T20:26:59.029Z,85.71
2024-01-15T20:29:30.264Z,86.11
2024-01-15T20:31:59.341Z,86.39
2024-01-15T20:34:28.617Z,86.41
2024-01-15T20:36:58.272Z,86.39
2024-01-15T20:39:27.140Z,86.17
2024-01-15T20:41:55.944Z,85.80
2024-01-15T20:44:25.932Z,85.11
2024-01-15T20:46:56.937Z,84.76
2024-01-15T20:49:27.316Z,85.07
2024-01-15T20:51:55.918Z,84.80
2024-01-15T20:54:24.544Z,84.66
2024-01-15T20:56:53.241Z,84.30
2024-01-15T20:59:21.882Z,83.81
2024-01-15T21:01:53.305Z,83.41
2024-01-15T21:04:23.441Z,83.51
2024-01-15T21:06:57.397Z,83.40
2024-01-15T21:09:29.112Z,82.89
2024-01-15T21:11:57.725Z,82.41
2024-01-15T21:14:26.338Z,81.89
2024-01-15T21:16:54.872Z,81.02
2024-01-15T21:19:24.434Z,80.47
2024-01-15T21:21:58.226Z,80.67
2024-01-15T21:24:29.183Z,80.87
2024-01-15T21:27:00.977Z,80.92
2024-01-15T21:29:29.624Z,81.15
2024-01-15T21:32:04.055Z,81.16
2024-01-15T21:34:37.352Z,81.27
2024-01-15T21:37:08.878Z,81.65
2024-01-15T21:39:38.592Z,81.85
2024-01-15T21:42:07.386Z,81.77
2024-01-15T21:44:39.177Z,81.91
2024-01-15T21:47:08.478Z,81.93
2024-01-15T21:49:40.150Z,82.45
2024-01-15T21:52:11.575Z,82.99
2024-01-15T21:54:40.140Z,83.34
2024-01-15T21:57:09.137Z,83.76
2024-01-15T21:59:38.043Z,84.40
2024-01-15T22:02:10.099Z,85.62
2024-01-15T22:04:38.976Z,86.25
2024-01-15T22:07:10.676Z,86.77
2024-01-15T22:09:42.065Z,88.58
2024-01-15T22:12:11.429Z,88.71
2024-01-15T22:14:40.125Z,90.14
2024-01-15T22:17:08.721Z,89.94
2024-01-15T22:19:37.402Z,92.09
2024-01-15T22:22:10.516Z,92.08
2024-01-15T22:24:39.864Z,91.31
2024-01-15T22:27:08.550Z,91.99
2024-01-15T22:29:37.752Z,92.14
2024-01-15T22:32:06.584Z,93.29
2024-01-15T22:34:35.474Z,93.64
2024-01-15T22:37:06.026Z,96.09
2024-01-15T22:39:34.733Z,98.36
2024-01-15T22:42:03.355Z,98.64
2024-01-15T22:44:31.993Z,99.61
2024-01-15T22:47:00.851Z,99.44
2024-01-15T22:49:29.569Z,99.74
2024-01-15T22:51:58.259Z,100.00
2024-01-15T22:54:27.110Z,100.00
2024-01-15T22:56:55.819Z,100.00
2024-01-15T22:59:26.818Z,100.00
2024-01-15T23:01:55.349Z,100.00
2024-01-15T23:04:23.914Z,100.00
2024-01-15T23:06:55.001Z,100.00
2024-01-15T23:09:27.254Z,100.00
2024-01-15T23:11:55.783Z,100.00
2024-01-15T23:14:24.328Z,100.00
2024-01-15T23:16:55.642Z,100.00
2024-01-15T23:19:24.265Z,100.00
2024-01-15T23:21:53.560Z,100.00
2024-01-15T23:24:22.094Z,100.00
2024-01-15T23:26:55.328Z,100.00
2024-01-15T23:29:23.995Z,100.00
2024-01-15T23:31:52.597Z,100.00
2024-01-15T23:34:21.213Z,100.00
2024-01-15T23:36:53.583Z,100.00
2024-01-15T23:39:22.998Z,100.00
2024-01-15T23:41:53.051Z,99.87
2024-01-15T23:44:21.734Z,99.04
2024-01-15T23:46:53.520Z,98.36
2024-01-15T23:49:24.565Z,97.87
2024-01-15T23:51:54.061Z,97.37
2024-01-15T23:54:22.608Z,97.25
2024-01-15T23:56:53.429Z,97.50
2024-01-15T23:59:22.163Z,99.53
